sensor_id;sensor_type;location;lat;lon;timestamp;pressure;altitude;pressure_sealevel;temperature;humidity
32642;BME280;19323;56.072;9.698;2023-03-19T00:01:18;100545.91;;;27.04;39.00
32642;BME280;19323;56.072;9.698;2023-03-19T00:03:44;100543.41;;;27.03;39.44
32642;BME280;19323;56.072;9.698;2023-03-19T00:06:09;100546.09;;;27.03;39.25
32642;BME280;19323;56.072;9.698;2023-03-19T00:08:34;100535.34;;;27.03;39.45
32642;BME280;19323;56.072;9.698;2023-03-19T00:11:04;100534.47;;;27.02;39.34
32642;BME280;19323;56.072;9.698;2023-03-19T00:13:30;100537.00;;;27.04;39.47
32642;BME280;19323;56.072;9.698;2023-03-19T00:15:55;100531.78;;;27.02;39.27
32642;BME280;19323;56.072;9.698;2023-03-19T00:18:20;100533.66;;;27.02;39.02
32642;BME280;19323;56.072;9.698;2023-03-19T00:20:45;100529.97;;;27.03;39.25
32642;BME280;19323;56.072;9.698;2023-03-19T00:23:10;100536.34;;;27.02;39.40
32642;BME280;19323;56.072;9.698;2023-03-19T00:25:36;100539.69;;;27.04;39.22
32642;BME280;19323;56.072;9.698;2023-03-19T00:28:01;100539.69;;;27.04;39.21
32642;BME280;19323;56.072;9.698;2023-03-19T00:30:26;100535.34;;;27.03;39.00
32642;BME280;19323;56.072;9.698;2023-03-19T00:32:51;100539.03;;;27.02;39.29
32642;BME280;19323;56.072;9.698;2023-03-19T00:35:16;100539.03;;;27.02;38.87
32642;BME280;19323;56.072;9.698;2023-03-19T00:37:42;100546.09;;;27.03;39.34
32642;BME280;19323;56.072;9.698;2023-03-19T00:40:07;100550.59;;;27.02;39.10
32642;BME280;19323;56.072;9.698;2023-03-19T00:42:34;100549.59;;;27.03;39.29
32642;BME280;19323;56.072;9.698;2023-03-19T00:44:59;100550.44;;;27.04;38.93
32642;BME280;19323;56.072;9.698;2023-03-19T00:47:25;100542.53;;;27.02;39.18
32642;BME280;19323;56.072;9.698;2023-03-19T00:49:50;100537.16;;;27.02;38.76
32642;BME280;19323;56.072;9.698;2023-03-19T00:52:16;100539.84;;;27.02;39.30
32642;BME280;19323;56.072;9.698;2023-03-19T00:54:41;100538.03;;;27.03;39.12
32642;BME280;19323;56.072;9.698;2023-03-19T00:57:06;100546.09;;;27.03;38.86
32642;BME280;19323;56.072;9.698;2023-03-19T00:59:32;100547.09;;;27.02;39.24
32642;BME280;19323;56.072;9.698;2023-03-19T01:01:57;100537.88;;;26.96;39.23
32642;BME280;19323;56.072;9.698;2023-03-19T01:04:22;100539.03;;;27.02;38.87
32642;BME280;19323;56.072;9.698;2023-03-19T01:06:47;100542.53;;;27.02;39.10
32642;BME280;19323;56.072;9.698;2023-03-19T01:09:13;100540.72;;;27.03;38.92
32642;BME280;19323;56.072;9.698;2023-03-19T01:11:38;100541.53;;;27.03;39.00
32642;BME280;19323;56.072;9.698;2023-03-19T01:14:03;100546.91;;;27.03;39.23
32642;BME280;19323;56.072;9.698;2023-03-19T01:16:28;100545.22;;;27.02;38.60
32642;BME280;19323;56.072;9.698;2023-03-19T01:18:53;100547.25;;;27.00;39.07
32642;BME280;19323;56.072;9.698;2023-03-19T01:21:19;100539.19;;;27.00;39.08
32642;BME280;19323;56.072;9.698;2023-03-19T01:23:44;100537.34;;;27.01;38.89
32642;BME280;19323;56.072;9.698;2023-03-19T01:26:10;100526.59;;;27.01;39.08
32642;BME280;19323;56.072;9.698;2023-03-19T01:28:35;100532.81;;;27.01;38.90
32642;BME280;19323;56.072;9.698;2023-03-19T01:31:03;100528.44;;;27.00;38.92
32642;BME280;19323;56.072;9.698;2023-03-19T01:33:29;100536.50;;;27.00;39.09
32642;BME280;19323;56.072;9.698;2023-03-19T01:35:54;100540.88;;;27.01;38.88
32642;BME280;19323;56.072;9.698;2023-03-19T01:38:21;100537.34;;;27.01;38.93
32642;BME280;19323;56.072;9.698;2023-03-19T01:40:47;100537.34;;;27.01;38.84
32642;BME280;19323;56.072;9.698;2023-03-19T01:45:38;100530.28;;;27.00;38.73
32642;BME280;19323;56.072;9.698;2023-03-19T01:48:03;100526.59;;;27.01;38.63
32642;BME280;19323;56.072;9.698;2023-03-19T01:50:38;100528.44;;;27.00;38.98
32642;BME280;19323;56.072;9.698;2023-03-19T01:53:03;100530.97;;;27.02;38.60
32642;BME280;19323;56.072;9.698;2023-03-19T01:55:29;100520.22;;;27.02;38.68
32642;BME280;19323;56.072;9.698;2023-03-19T01:57:55;100523.91;;;27.01;38.93
32642;BME280;19323;56.072;9.698;2023-03-19T02:00:21;100524.75;;;27.01;38.89
32642;BME280;19323;56.072;9.698;2023-03-19T02:02:47;100519.53;;;27.00;38.59
32642;BME280;19323;56.072;9.698;2023-03-19T02:05:16;100516.03;;;26.99;38.96
32642;BME280;19323;56.072;9.698;2023-03-19T02:07:49;100517.00;;;26.98;38.77
32642;BME280;19323;56.072;9.698;2023-03-19T02:10:16;100523.25;;;26.99;38.62
32642;BME280;19323;56.072;9.698;2023-03-19T02:12:42;100520.56;;;26.99;39.00
32642;BME280;19323;56.072;9.698;2023-03-19T02:15:07;100523.25;;;26.99;38.62
32642;BME280;19323;56.072;9.698;2023-03-19T02:17:33;100530.28;;;27.00;38.97
32642;BME280;19323;56.072;9.698;2023-03-19T02:20:00;100524.91;;;27.00;38.69
32642;BME280;19323;56.072;9.698;2023-03-19T02:22:28;100535.66;;;27.00;38.73
32642;BME280;19323;56.072;9.698;2023-03-19T02:24:58;100527.78;;;26.98;38.89
32642;BME280;19323;56.072;9.698;2023-03-19T02:27:26;100531.31;;;26.99;38.44
32642;BME280;19323;56.072;9.698;2023-03-19T02:29:51;100534.00;;;26.99;38.85
32642;BME280;19323;56.072;9.698;2023-03-19T02:32:16;100528.63;;;26.99;38.57
32642;BME280;19323;56.072;9.698;2023-03-19T02:34:42;100537.53;;;26.99;38.75
32642;BME280;19323;56.072;9.698;2023-03-19T02:37:10;100532.16;;;26.99;38.90
32642;BME280;19323;56.072;9.698;2023-03-19T02:39:39;100534.00;;;26.99;38.83
32642;BME280;19323;56.072;9.698;2023-03-19T02:42:06;100528.63;;;26.99;38.74
32642;BME280;19323;56.072;9.698;2023-03-19T02:44:33;100525.06;;;26.98;38.79
32642;BME280;19323;56.072;9.698;2023-03-19T02:46:58;100526.94;;;26.98;38.89
32642;BME280;19323;56.072;9.698;2023-03-19T02:49:23;100533.34;;;26.97;38.67
32642;BME280;19323;56.072;9.698;2023-03-19T02:51:48;100531.47;;;26.97;38.91
32642;BME280;19323;56.072;9.698;2023-03-19T02:54:14;100536.03;;;26.97;38.83
32642;BME280;19323;56.072;9.698;2023-03-19T02:56:39;100533.34;;;26.97;38.71
32642;BME280;19323;56.072;9.698;2023-03-19T02:59:04;100534.34;;;26.96;38.83
32642;BME280;19323;56.072;9.698;2023-03-19T03:01:29;100534.34;;;26.96;38.86
32642;BME280;19323;56.072;9.698;2023-03-19T03:03:54;100532.66;;;26.95;38.85
32642;BME280;19323;56.072;9.698;2023-03-19T03:06:20;100536.19;;;26.95;38.40
32642;BME280;19323;56.072;9.698;2023-03-19T03:08:45;100543.41;;;26.95;38.46
32642;BME280;19323;56.072;9.698;2023-03-19T03:11:10;100542.41;;;26.96;38.43
32642;BME280;19323;56.072;9.698;2023-03-19T03:13:36;100531.84;;;26.94;38.55
32642;BME280;19323;56.072;9.698;2023-03-19T03:16:01;100539.91;;;26.94;38.84
32642;BME280;19323;56.072;9.698;2023-03-19T03:18:26;100541.72;;;26.93;38.79
32642;BME280;19323;56.072;9.698;2023-03-19T03:20:51;100541.72;;;26.93;38.41
32642;BME280;19323;56.072;9.698;2023-03-19T03:23:17;100533.66;;;26.93;38.85
32642;BME280;19323;56.072;9.698;2023-03-19T03:25:42;100543.59;;;26.93;38.47
32642;BME280;19323;56.072;9.698;2023-03-19T03:28:08;100534.69;;;26.92;38.74
32642;BME280;19323;56.072;9.698;2023-03-19T03:30:33;100540.06;;;26.92;38.70
32642;BME280;19323;56.072;9.698;2023-03-19T03:32:58;100538.38;;;26.91;38.56
32642;BME280;19323;56.072;9.698;2023-03-19T03:35:23;100530.31;;;26.91;38.72
32642;BME280;19323;56.072;9.698;2023-03-19T03:37:49;100538.38;;;26.91;38.65
32642;BME280;19323;56.072;9.698;2023-03-19T03:40:14;100534.03;;;26.90;38.74
32642;BME280;19323;56.072;9.698;2023-03-19T03:42:40;100534.03;;;26.90;38.78
32642;BME280;19323;56.072;9.698;2023-03-19T03:45:05;100533.19;;;26.90;38.60
32642;BME280;19323;56.072;9.698;2023-03-19T03:47:31;100531.50;;;26.89;38.65
32642;BME280;19323;56.072;9.698;2023-03-19T03:49:56;100527.81;;;26.90;38.43
32642;BME280;19323;56.072;9.698;2023-03-19T03:52:21;100523.44;;;26.89;38.39
32642;BME280;19323;56.072;9.698;2023-03-19T03:54:46;100521.63;;;26.89;38.26
32642;BME280;19323;56.072;9.698;2023-03-19T03:57:11;100522.59;;;26.88;38.76
32642;BME280;19323;56.072;9.698;2023-03-19T03:59:37;100520.75;;;26.89;38.58
32642;BME280;19323;56.072;9.698;2023-03-19T04:02:02;100528.00;;;26.88;38.67
32642;BME280;19323;56.072;9.698;2023-03-19T04:04:27;100519.91;;;26.88;38.73
32642;BME280;19323;56.072;9.698;2023-03-19T04:06:53;100517.59;;;26.85;38.58
32642;BME280;19323;56.072;9.698;2023-03-19T04:09:18;100523.81;;;26.86;38.30
32642;BME280;19323;56.072;9.698;2023-03-19T04:11:43;100529.19;;;26.86;38.35
32642;BME280;19323;56.072;9.698;2023-03-19T04:14:09;100525.66;;;26.85;38.66
32642;BME280;19323;56.072;9.698;2023-03-19T04:16:34;100524.78;;;26.85;38.59
32642;BME280;19323;56.072;9.698;2023-03-19T04:18:59;100528.34;;;26.85;38.47
32642;BME280;19323;56.072;9.698;2023-03-19T04:21:24;100514.03;;;26.85;38.17
32642;BME280;19323;56.072;9.698;2023-03-19T04:23:50;100521.13;;;26.86;38.52
32642;BME280;19323;56.072;9.698;2023-03-19T04:26:15;100528.34;;;26.85;38.60
32642;BME280;19323;56.072;9.698;2023-03-19T04:28:40;100523.81;;;26.86;38.59
32642;BME280;19323;56.072;9.698;2023-03-19T04:31:06;100528.34;;;26.85;38.26
32642;BME280;19323;56.072;9.698;2023-03-19T04:33:32;100523.13;;;26.84;38.20
32642;BME280;19323;56.072;9.698;2023-03-19T04:35:57;100525.81;;;26.84;38.12
32642;BME280;19323;56.072;9.698;2023-03-19T04:38:23;100526.66;;;26.84;38.36
32642;BME280;19323;56.072;9.698;2023-03-19T04:40:50;100525.00;;;26.83;38.29
32642;BME280;19323;56.072;9.698;2023-03-19T04:43:15;100524.13;;;26.83;38.43
32642;BME280;19323;56.072;9.698;2023-03-19T04:45:41;100521.44;;;26.83;38.50
32642;BME280;19323;56.072;9.698;2023-03-19T04:48:06;100523.13;;;26.84;38.38
32642;BME280;19323;56.072;9.698;2023-03-19T04:50:32;100518.75;;;26.83;38.46
32642;BME280;19323;56.072;9.698;2023-03-19T04:52:58;100512.56;;;26.82;38.12
32642;BME280;19323;56.072;9.698;2023-03-19T04:55:23;100511.72;;;26.82;38.32
32642;BME280;19323;56.072;9.698;2023-03-19T04:57:49;100507.19;;;26.82;38.46
32642;BME280;19323;56.072;9.698;2023-03-19T05:00:14;100509.84;;;26.82;37.85
32642;BME280;19323;56.072;9.698;2023-03-19T05:02:40;100515.22;;;26.82;37.89
32642;BME280;19323;56.072;9.698;2023-03-19T05:05:07;100516.25;;;26.81;38.04
32642;BME280;19323;56.072;9.698;2023-03-19T05:07:35;100519.13;;;26.80;38.18
32642;BME280;19323;56.072;9.698;2023-03-19T05:10:01;100524.47;;;26.80;38.06
32642;BME280;19323;56.072;9.698;2023-03-19T05:12:26;100524.47;;;26.80;38.18
32642;BME280;19323;56.072;9.698;2023-03-19T05:14:52;100528.00;;;26.80;37.90
32642;BME280;19323;56.072;9.698;2023-03-19T05:17:17;100521.97;;;26.78;37.81
32642;BME280;19323;56.072;9.698;2023-03-19T05:19:42;100528.19;;;26.79;38.22
32642;BME280;19323;56.072;9.698;2023-03-19T05:22:07;100521.97;;;26.78;38.02
32642;BME280;19323;56.072;9.698;2023-03-19T05:24:32;100526.50;;;26.78;38.10
32642;BME280;19323;56.072;9.698;2023-03-19T05:26:58;100495.69;;;26.57;37.79
32642;BME280;19323;56.072;9.698;2023-03-19T05:29:23;100527.34;;;26.78;38.29
32642;BME280;19323;56.072;9.698;2023-03-19T05:31:48;100523.66;;;26.79;38.04
32642;BME280;19323;56.072;9.698;2023-03-19T05:34:13;100529.84;;;26.80;38.30
32642;BME280;19323;56.072;9.698;2023-03-19T05:36:38;100523.66;;;26.79;38.00
32642;BME280;19323;56.072;9.698;2023-03-19T05:39:04;100523.66;;;26.79;38.23
32642;BME280;19323;56.072;9.698;2023-03-19T05:41:30;100523.00;;;26.77;37.77
32642;BME280;19323;56.072;9.698;2023-03-19T05:43:55;100523.00;;;26.77;38.03
32642;BME280;19323;56.072;9.698;2023-03-19T05:46:20;100537.25;;;26.78;38.30
32642;BME280;19323;56.072;9.698;2023-03-19T05:48:46;100528.38;;;26.77;37.80
32642;BME280;19323;56.072;9.698;2023-03-19T05:51:11;100522.16;;;26.77;38.12
32642;BME280;19323;56.072;9.698;2023-03-19T05:53:36;100523.00;;;26.77;37.86
32642;BME280;19323;56.072;9.698;2023-03-19T05:56:02;100525.66;;;26.77;37.84
32642;BME280;19323;56.072;9.698;2023-03-19T05:58:27;100525.84;;;26.76;38.11
32642;BME280;19323;56.072;9.698;2023-03-19T06:00:53;100520.63;;;26.74;38.18
32642;BME280;19323;56.072;9.698;2023-03-19T06:03:20;100520.63;;;26.74;38.17
32642;BME280;19323;56.072;9.698;2023-03-19T06:05:47;100520.63;;;26.74;38.05
32642;BME280;19323;56.072;9.698;2023-03-19T06:08:12;100519.78;;;26.74;38.20
32642;BME280;19323;56.072;9.698;2023-03-19T06:10:37;100518.13;;;26.73;37.82
32642;BME280;19323;56.072;9.698;2023-03-19T06:13:03;100526.19;;;26.73;37.82
32642;BME280;19323;56.072;9.698;2023-03-19T06:15:29;100524.34;;;26.73;37.80
32642;BME280;19323;56.072;9.698;2023-03-19T06:17:54;100518.28;;;26.71;37.87
32642;BME280;19323;56.072;9.698;2023-03-19T06:20:19;100520.16;;;26.70;38.13
32642;BME280;19323;56.072;9.698;2023-03-19T06:22:45;100518.28;;;26.71;37.85
32642;BME280;19323;56.072;9.698;2023-03-19T06:25:10;100516.44;;;26.71;37.70
32642;BME280;19323;56.072;9.698;2023-03-19T06:27:36;100518.47;;;26.69;37.84
32642;BME280;19323;56.072;9.698;2023-03-19T06:30:01;100515.78;;;26.69;38.15
32642;BME280;19323;56.072;9.698;2023-03-19T06:32:26;100516.81;;;26.68;37.93
32642;BME280;19323;56.072;9.698;2023-03-19T06:34:51;100519.66;;;26.67;38.08
32642;BME280;19323;56.072;9.698;2023-03-19T06:37:17;100507.25;;;26.66;38.10
32642;BME280;19323;56.072;9.698;2023-03-19T06:39:45;100516.13;;;26.66;38.01
32642;BME280;19323;56.072;9.698;2023-03-19T06:42:10;100518.81;;;26.66;37.98
32642;BME280;19323;56.072;9.698;2023-03-19T06:44:36;100522.34;;;26.67;37.88
32642;BME280;19323;56.072;9.698;2023-03-19T06:47:01;100525.03;;;26.67;38.12
32642;BME280;19323;56.072;9.698;2023-03-19T06:49:26;100524.19;;;26.66;37.64
32642;BME280;19323;56.072;9.698;2023-03-19T06:51:51;100533.25;;;26.65;37.62
32642;BME280;19323;56.072;9.698;2023-03-19T06:54:16;100532.25;;;26.66;37.99
32642;BME280;19323;56.072;9.698;2023-03-19T06:56:42;100542.31;;;26.64;37.59
32642;BME280;19323;56.072;9.698;2023-03-19T06:59:07;100534.44;;;26.63;38.00
32642;BME280;19323;56.072;9.698;2023-03-19T07:01:36;100540.00;;;26.61;37.64
32642;BME280;19323;56.072;9.698;2023-03-19T07:04:01;100543.50;;;26.62;38.02
32642;BME280;19323;56.072;9.698;2023-03-19T07:06:26;100542.69;;;26.61;37.65
32642;BME280;19323;56.072;9.698;2023-03-19T07:08:51;100541.00;;;26.60;37.65
32642;BME280;19323;56.072;9.698;2023-03-19T07:11:17;100546.19;;;26.62;38.01
32642;BME280;19323;56.072;9.698;2023-03-19T07:13:42;100541.81;;;26.61;37.70
32642;BME280;19323;56.072;9.698;2023-03-19T07:16:07;100540.16;;;26.60;37.98
32642;BME280;19323;56.072;9.698;2023-03-19T07:18:32;100551.91;;;26.59;37.79
32642;BME280;19323;56.072;9.698;2023-03-19T07:20:57;100550.38;;;26.56;37.81
32642;BME280;19323;56.072;9.698;2023-03-19T07:23:23;100559.44;;;26.55;37.89
32642;BME280;19323;56.072;9.698;2023-03-19T07:25:48;100564.13;;;26.53;38.07
32642;BME280;19323;56.072;9.698;2023-03-19T07:28:13;100555.56;;;26.49;38.24
32642;BME280;19323;56.072;9.698;2023-03-19T07:30:38;100557.94;;;26.52;38.22
32642;BME280;19323;56.072;9.698;2023-03-19T07:33:04;100555.06;;;26.54;38.13
32642;BME280;19323;56.072;9.698;2023-03-19T07:35:31;100557.94;;;26.52;38.08
32642;BME280;19323;56.072;9.698;2023-03-19T07:37:56;100558.94;;;26.51;38.21
32642;BME280;19323;56.072;9.698;2023-03-19T07:40:21;100552.56;;;26.52;38.42
32642;BME280;19323;56.072;9.698;2023-03-19T07:42:46;100553.25;;;26.55;38.04
32642;BME280;19323;56.072;9.698;2023-03-19T07:45:11;100553.06;;;26.56;38.38
32642;BME280;19323;56.072;9.698;2023-03-19T07:47:37;100546.88;;;26.56;38.29
32642;BME280;19323;56.072;9.698;2023-03-19T07:50:02;100548.38;;;26.58;38.17
32642;BME280;19323;56.072;9.698;2023-03-19T07:52:27;100550.91;;;26.60;38.41
32642;BME280;19323;56.072;9.698;2023-03-19T07:54:53;100559.78;;;26.60;38.11
32642;BME280;19323;56.072;9.698;2023-03-19T07:57:18;100557.09;;;26.60;38.05
32642;BME280;19323;56.072;9.698;2023-03-19T07:59:43;100545.53;;;26.60;38.08
32642;BME280;19323;56.072;9.698;2023-03-19T08:02:11;100543.66;;;26.60;38.43
32642;BME280;19323;56.072;9.698;2023-03-19T08:04:37;100546.19;;;26.62;38.04
32642;BME280;19323;56.072;9.698;2023-03-19T08:07:02;100551.41;;;26.63;38.55
32642;BME280;19323;56.072;9.698;2023-03-19T08:09:27;100563.81;;;26.64;38.43
32642;BME280;19323;56.072;9.698;2023-03-19T08:11:53;100555.59;;;26.66;38.22
32642;BME280;19323;56.072;9.698;2023-03-19T08:14:18;100567.16;;;26.66;38.29
32642;BME280;19323;56.072;9.698;2023-03-19T08:16:46;100556.44;;;26.66;38.47
32642;BME280;19323;56.072;9.698;2023-03-19T08:19:11;100551.22;;;26.65;38.16
32642;BME280;19323;56.072;9.698;2023-03-19T08:21:37;100559.47;;;26.63;38.26
32642;BME280;19323;56.072;9.698;2023-03-19T08:24:02;100548.88;;;26.62;38.40
32642;BME280;19323;56.072;9.698;2023-03-19T08:26:27;100547.19;;;26.61;38.34
32642;BME280;19323;56.072;9.698;2023-03-19T08:28:52;100548.88;;;26.62;38.41
32642;BME280;19323;56.072;9.698;2023-03-19T08:31:18;100558.97;;;26.60;38.89
32642;BME280;19323;56.072;9.698;2023-03-19T08:33:43;100555.59;;;26.58;38.73
32642;BME280;19323;56.072;9.698;2023-03-19T08:36:10;100556.75;;;26.55;39.26
32642;BME280;19323;56.072;9.698;2023-03-19T08:38:36;100556.09;;;26.53;39.28
32642;BME280;19323;56.072;9.698;2023-03-19T08:41:01;100552.72;;;26.51;39.21
32642;BME280;19323;56.072;9.698;2023-03-19T08:43:28;100556.25;;;26.51;39.06
32642;BME280;19323;56.072;9.698;2023-03-19T08:45:53;100562.63;;;26.50;39.08
32642;BME280;19323;56.072;9.698;2023-03-19T08:48:18;100562.63;;;26.50;39.00
32642;BME280;19323;56.072;9.698;2023-03-19T08:50:44;100562.81;;;26.49;39.46
32642;BME280;19323;56.072;9.698;2023-03-19T08:53:09;100561.31;;;26.46;39.23
32642;BME280;19323;56.072;9.698;2023-03-19T08:55:34;100561.13;;;26.48;39.08
32642;BME280;19323;56.072;9.698;2023-03-19T08:57:59;100563.63;;;26.49;39.05
32642;BME280;19323;56.072;9.698;2023-03-19T09:00:24;100563.63;;;26.49;39.23
32642;BME280;19323;56.072;9.698;2023-03-19T09:02:50;100565.50;;;26.49;39.20
32642;BME280;19323;56.072;9.698;2023-03-19T09:05:15;100558.44;;;26.48;39.57
32642;BME280;19323;56.072;9.698;2023-03-19T09:07:40;100561.31;;;26.46;39.20
32642;BME280;19323;56.072;9.698;2023-03-19T09:10:05;100561.13;;;26.48;39.46
32642;BME280;19323;56.072;9.698;2023-03-19T09:12:31;100562.97;;;26.47;39.22
32642;BME280;19323;56.072;9.698;2023-03-19T09:14:56;100558.78;;;26.45;39.58
32642;BME280;19323;56.072;9.698;2023-03-19T09:17:22;100562.28;;;26.45;39.23
32642;BME280;19323;56.072;9.698;2023-03-19T09:19:47;100566.84;;;26.45;39.30
32642;BME280;19323;56.072;9.698;2023-03-19T09:22:12;100568.69;;;26.44;39.41
32642;BME280;19323;56.072;9.698;2023-03-19T09:24:37;100563.31;;;26.44;39.40
32642;BME280;19323;56.072;9.698;2023-03-19T09:27:02;100565.31;;;26.42;39.73
32642;BME280;19323;56.072;9.698;2023-03-19T09:29:27;100569.69;;;26.43;39.41
32642;BME280;19323;56.072;9.698;2023-03-19T09:31:53;100569.34;;;26.46;39.74
32642;BME280;19323;56.072;9.698;2023-03-19T09:34:18;100565.50;;;26.49;39.52
32642;BME280;19323;56.072;9.698;2023-03-19T09:36:43;100563.47;;;26.51;39.70
32642;BME280;19323;56.072;9.698;2023-03-19T09:39:08;100563.31;;;26.52;39.41
32642;BME280;19323;56.072;9.698;2023-03-19T09:44:26;100569.03;;;26.58;39.30
32642;BME280;19323;56.072;9.698;2023-03-19T09:49:41;100559.78;;;26.60;39.20
32642;BME280;19323;56.072;9.698;2023-03-19T09:54:45;100562.16;;;26.63;39.30
32642;BME280;19323;56.072;9.698;2023-03-19T09:57:12;100568.34;;;26.64;39.46
32642;BME280;19323;56.072;9.698;2023-03-19T09:59:38;100562.97;;;26.64;39.26
32642;BME280;19323;56.072;9.698;2023-03-19T10:07:20;100565.84;;;26.62;39.51
32642;BME280;19323;56.072;9.698;2023-03-19T10:17:20;100572.91;;;26.63;39.39
32642;BME280;19323;56.072;9.698;2023-03-19T10:20:00;100576.56;;;26.62;39.32
32642;BME280;19323;56.072;9.698;2023-03-19T10:22:28;100571.38;;;26.61;39.35
32642;BME280;19323;56.072;9.698;2023-03-19T10:24:56;100575.06;;;26.60;39.64
32642;BME280;19323;56.072;9.698;2023-03-19T10:27:24;100580.44;;;26.60;39.45
32642;BME280;19323;56.072;9.698;2023-03-19T10:29:49;100579.78;;;26.58;39.43
32642;BME280;19323;56.072;9.698;2023-03-19T10:32:19;100577.25;;;26.56;39.33
32642;BME280;19323;56.072;9.698;2023-03-19T10:34:45;100581.09;;;26.54;39.36
32642;BME280;19323;56.072;9.698;2023-03-19T10:39:38;100580.41;;;26.51;39.83
32642;BME280;19323;56.072;9.698;2023-03-19T10:44:41;100578.56;;;26.52;39.86
32642;BME280;19323;56.072;9.698;2023-03-19T10:47:11;100578.75;;;26.50;39.83
32642;BME280;19323;56.072;9.698;2023-03-19T10:49:36;100583.09;;;26.51;39.44
32642;BME280;19323;56.072;9.698;2023-03-19T10:52:01;100585.78;;;26.51;39.70
32642;BME280;19323;56.072;9.698;2023-03-19T10:54:27;100591.16;;;26.51;39.85
32642;BME280;19323;56.072;9.698;2023-03-19T10:56:59;100587.66;;;26.51;39.58
32642;BME280;19323;56.072;9.698;2023-03-19T11:01:57;100583.47;;;26.48;39.58
32642;BME280;19323;56.072;9.698;2023-03-19T11:04:23;100586.13;;;26.48;39.60
32642;BME280;19323;56.072;9.698;2023-03-19T11:06:51;100593.19;;;26.49;39.92
32642;BME280;19323;56.072;9.698;2023-03-19T11:09:27;100595.88;;;26.49;40.04
32642;BME280;19323;56.072;9.698;2023-03-19T11:11:57;100596.53;;;26.51;39.62
32642;BME280;19323;56.072;9.698;2023-03-19T11:14:31;100600.06;;;26.52;39.60
32642;BME280;19323;56.072;9.698;2023-03-19T11:17:13;100595.34;;;26.54;39.56
32642;BME280;19323;56.072;9.698;2023-03-19T11:19:40;100600.44;;;26.57;39.55
32642;BME280;19323;56.072;9.698;2023-03-19T11:24:41;100603.59;;;26.61;39.48
32642;BME280;19323;56.072;9.698;2023-03-19T11:27:08;100599.91;;;26.62;39.84
32642;BME280;19323;56.072;9.698;2023-03-19T11:29:35;100605.97;;;26.64;40.16
32642;BME280;19323;56.072;9.698;2023-03-19T11:34:30;100599.41;;;26.66;39.91
32642;BME280;19323;56.072;9.698;2023-03-19T11:42:35;100588.16;;;26.63;40.16
32642;BME280;19323;56.072;9.698;2023-03-19T11:45:28;100583.97;;;26.60;40.42
32642;BME280;19323;56.072;9.698;2023-03-19T11:50:25;100592.03;;;26.60;40.11
32642;BME280;19323;56.072;9.698;2023-03-19T11:58:01;100594.88;;;26.59;40.66
32642;BME280;19323;56.072;9.698;2023-03-19T12:00:29;100585.81;;;26.60;40.10
32642;BME280;19323;56.072;9.698;2023-03-19T12:03:10;100583.28;;;26.58;40.19
32642;BME280;19323;56.072;9.698;2023-03-19T12:13:06;100581.13;;;26.62;40.18
32642;BME280;19323;56.072;9.698;2023-03-19T12:15:38;100579.94;;;26.64;40.13
32642;BME280;19323;56.072;9.698;2023-03-19T12:28:15;100568.34;;;26.72;40.37
32642;BME280;19323;56.072;9.698;2023-03-19T12:30:44;100568.34;;;26.72;40.02
32642;BME280;19323;56.072;9.698;2023-03-19T12:35:56;100569.19;;;26.73;40.38
32642;BME280;19323;56.072;9.698;2023-03-19T12:38:25;100574.56;;;26.73;39.97
32642;BME280;19323;56.072;9.698;2023-03-19T12:40:53;100572.69;;;26.73;39.96
32642;BME280;19323;56.072;9.698;2023-03-19T12:43:23;100569.00;;;26.74;40.28
32642;BME280;19323;56.072;9.698;2023-03-19T12:45:50;100563.63;;;26.74;39.91
32642;BME280;19323;56.072;9.698;2023-03-19T12:48:22;100562.63;;;26.75;39.93
32642;BME280;19323;56.072;9.698;2023-03-19T12:50:50;100558.06;;;26.76;39.92
32642;BME280;19323;56.072;9.698;2023-03-19T12:53:27;100551.72;;;26.77;40.09
32642;BME280;19323;56.072;9.698;2023-03-19T12:55:56;100559.56;;;26.78;40.31
32642;BME280;19323;56.072;9.698;2023-03-19T13:01:07;100560.44;;;26.79;39.83
32642;BME280;19323;56.072;9.698;2023-03-19T13:03:53;100562.25;;;26.78;40.06
32642;BME280;19323;56.072;9.698;2023-03-19T13:06:25;100567.63;;;26.78;39.91
32642;BME280;19323;56.072;9.698;2023-03-19T13:09:15;100567.47;;;26.80;40.17
32642;BME280;19323;56.072;9.698;2023-03-19T13:11:45;100562.94;;;26.80;40.21
32642;BME280;19323;56.072;9.698;2023-03-19T13:14:21;100558.44;;;26.81;39.84
32642;BME280;19323;56.072;9.698;2023-03-19T13:16:52;100554.53;;;26.83;40.18
32642;BME280;19323;56.072;9.698;2023-03-19T13:19:26;100555.53;;;26.82;40.13
32642;BME280;19323;56.072;9.698;2023-03-19T13:21:54;100561.59;;;26.84;40.34
32642;BME280;19323;56.072;9.698;2023-03-19T13:24:28;100559.72;;;26.85;40.27
32642;BME280;19323;56.072;9.698;2023-03-19T13:26:55;100563.94;;;26.87;40.22
32642;BME280;19323;56.072;9.698;2023-03-19T13:29:26;100557.72;;;26.87;40.91
32642;BME280;19323;56.072;9.698;2023-03-19T13:31:52;100553.19;;;26.87;40.79
32642;BME280;19323;56.072;9.698;2023-03-19T13:34:24;100554.69;;;26.90;41.01
32642;BME280;19323;56.072;9.698;2023-03-19T13:36:52;100555.38;;;26.92;41.17
32642;BME280;19323;56.072;9.698;2023-03-19T13:39:18;100552.47;;;26.93;40.99
32642;BME280;19323;56.072;9.698;2023-03-19T13:41:49;100549.47;;;26.97;41.00
32642;BME280;19323;56.072;9.698;2023-03-19T13:46:40;100541.03;;;27.00;41.28
32642;BME280;19323;56.072;9.698;2023-03-19T13:51:49;100547.75;;;27.04;41.19
32642;BME280;19323;56.072;9.698;2023-03-19T13:54:15;100537.84;;;27.04;41.34
32642;BME280;19323;56.072;9.698;2023-03-19T13:59:25;100544.06;;;27.05;40.88
32642;BME280;19323;56.072;9.698;2023-03-19T14:01:51;100537.50;;;27.07;41.00
32642;BME280;19323;56.072;9.698;2023-03-19T14:04:38;100543.72;;;27.08;41.22
32642;BME280;19323;56.072;9.698;2023-03-19T14:07:09;100539.16;;;27.08;41.30